Time;durP1;ratioP1;P1;durP2;ratioP2;P2;SDS_P1;SDS_P2;PMS_P1;PMS_P2;Temp;Humidity;BMP_temperature;BMP_pressure;BME280_temperature;BME280_humidity;BME280_pressure;Samples;Min_cycle;Max_cycle;Signal;HPM_P1;HPM_P2
2022/04/19 00:01:56;;;;;;;2.60;1.70;;;;;;;-4.41;77.95;98432.19;105248;1271;75546;-26
2022/04/19 00:04:27;;;;;;;2.00;1.20;;;;;;;-4.61;78.28;98435.33;104978;1274;76150;-26
2022/04/19 00:06:56;;;;;;;2.60;2.10;;;;;;;-4.15;79.52;98436.45;104957;1271;74398;-26
2022/04/19 00:09:24;;;;;;;4.00;2.30;;;;;;;-3.17;78.34;98435.97;104939;1271;61118;-26
2022/04/19 00:11:55;;;;;;;4.00;2.10;;;;;;;-2.82;77.04;98434.90;104910;1271;62036;-26
2022/04/19 00:14:24;;;;;;;6.20;2.50;;;;;;;-2.93;75.88;98435.46;104963;1270;75634;-26
2022/04/19 00:16:52;;;;;;;2.60;1.80;;;;;;;-3.16;75.86;98435.09;105083;1271;76047;-27
2022/04/19 00:19:21;;;;;;;2.30;1.30;;;;;;;-3.43;75.55;98430.60;104933;1271;74170;-26
2022/04/19 00:21:50;;;;;;;1.50;1.20;;;;;;;-3.67;76.26;98428.67;104996;1271;61054;-26
2022/04/19 00:24:19;;;;;;;2.90;1.80;;;;;;;-3.86;77.29;98425.72;105292;1270;62500;-26
2022/04/19 00:26:48;;;;;;;3.10;2.00;;;;;;;-4.03;78.08;98425.76;105236;1271;75673;-29
2022/04/19 00:29:17;;;;;;;3.30;2.00;;;;;;;-4.17;78.50;98427.39;105195;1271;75925;-26
2022/04/19 00:32:06;;;;;;;2.90;1.90;;;;;;;-4.25;78.82;98425.92;104974;1271;75812;-26
2022/04/19 00:34:35;;;;;;;4.60;2.90;;;;;;;-3.63;79.08;98430.91;104918;1271;62042;-26
2022/04/19 00:37:05;;;;;;;6.20;2.70;;;;;;;-2.81;78.08;98430.78;104781;1271;61858;-26
2022/04/19 00:39:34;;;;;;;4.70;3.00;;;;;;;-2.60;77.00;98431.52;104798;1272;75526;-26
2022/04/19 00:42:03;;;;;;;4.80;2.80;;;;;;;-2.70;76.80;98433.62;104992;1271;76045;-26
2022/04/19 00:44:53;;;;;;;2.40;1.70;;;;;;;-2.99;76.35;98434.00;104763;1271;74436;-26
2022/04/19 00:47:21;;;;;;;3.90;1.80;;;;;;;-3.27;75.82;98437.15;104991;1271;61191;-26
2022/04/19 00:49:50;;;;;;;2.40;1.60;;;;;;;-3.51;76.94;98434.92;104947;1271;61157;-26
2022/04/19 00:52:40;;;;;;;3.10;1.60;;;;;;;-3.83;76.70;98434.44;104938;1271;74609;-26
2022/04/19 00:55:10;;;;;;;3.70;1.50;;;;;;;-4.13;77.07;98430.65;104887;1271;76112;-26
2022/04/19 00:57:44;;;;;;;3.00;1.60;;;;;;;-4.33;77.75;98432.60;104912;1271;74197;-27
2022/04/19 01:00:15;;;;;;;4.20;2.10;;;;;;;-4.47;78.34;98433.74;104907;1271;62593;-28
2022/04/19 01:02:57;;;;;;;2.90;2.10;;;;;;;-3.98;78.53;98433.41;104944;1271;61073;-26
2022/04/19 01:05:33;;;;;;;4.90;2.70;;;;;;;-3.12;77.00;98436.15;105054;1270;75311;-26
2022/04/19 01:08:25;;;;;;;4.60;2.60;;;;;;;-2.91;76.08;98432.84;104866;1271;76061;-26
2022/04/19 01:13:17;;;;;;;3.90;2.50;;;;;;;-3.05;76.24;98432.85;104830;1271;74554;-26
2022/04/19 01:13:56;;;;;;;3.90;2.20;;;;;;;-3.33;76.67;98431.94;104959;1271;61138;-26
2022/04/19 01:16:25;;;;;;;3.10;1.80;;;;;;;-3.57;76.98;98431.23;104925;1271;61164;-26
2022/04/19 01:19:15;;;;;;;2.90;1.90;;;;;;;-3.77;78.09;98431.22;104731;1271;76530;-26
2022/04/19 01:21:46;;;;;;;2.40;1.70;;;;;;;-3.97;78.20;98428.80;104770;1271;74750;-26
2022/04/19 01:24:18;;;;;;;2.90;1.90;;;;;;;-4.16;78.62;98425.84;104791;1272;73330;-25
2022/04/19 01:26:49;;;;;;;3.10;1.90;;;;;;;-4.31;79.34;98427.64;104779;1271;61086;-25
2022/04/19 01:29:18;;;;;;;6.60;2.00;;;;;;;-4.42;79.92;98423.92;104943;1271;61086;-27
2022/04/19 01:31:51;;;;;;;5.60;3.40;;;;;;;-3.91;79.91;98424.01;105108;1271;74971;-27
2022/04/19 01:34:22;;;;;;;3.50;2.00;;;;;;;-3.01;78.57;98425.38;104673;1271;76088;-27
2022/04/19 01:36:55;;;;;;;5.60;3.10;;;;;;;-2.77;77.30;98425.73;105235;1271;74382;-27
2022/04/19 01:42:32;;;;;;;5.50;3.10;;;;;;;-3.20;77.53;98431.67;104880;1271;61549;-27
2022/04/19 01:45:02;;;;;;;3.60;1.80;;;;;;;-3.41;77.60;98434.59;104931;1271;75292;-27
2022/04/19 01:47:32;;;;;;;2.80;1.90;;;;;;;-3.68;77.18;98430.23;104903;1271;76138;-27
2022/04/19 01:50:00;;;;;;;4.50;2.30;;;;;;;-3.92;77.53;98430.50;104953;1271;74381;-27
2022/04/19 01:52:31;;;;;;;3.10;2.00;;;;;;;-4.10;77.61;98432.58;104947;1271;61212;-27
2022/04/19 01:55:01;;;;;;;3.90;1.90;;;;;;;-4.27;78.46;98428.87;104950;1271;61146;-27
2022/04/19 01:57:34;;;;;;;3.90;2.10;;;;;;;-4.37;79.53;98428.66;105085;1274;75596;-26
2022/04/19 02:00:04;;;;;;;12.20;3.20;;;;;;;-3.83;80.56;98430.52;105151;1271;75904;-26
2022/04/19 02:02:55;;;;;;;4.70;2.70;;;;;;;-2.89;79.09;98427.67;104958;1272;74367;-27
2022/04/19 02:05:24;;;;;;;5.70;3.20;;;;;;;-2.69;77.78;98426.80;104901;1271;61158;-27
2022/04/19 02:07:53;;;;;;;11.10;3.60;;;;;;;-2.85;77.35;98425.48;104978;1271;61129;-27
2022/04/19 02:10:23;;;;;;;4.80;2.90;;;;;;;-3.09;77.15;98423.80;104987;1271;74637;-27
2022/04/19 02:13:13;;;;;;;4.50;2.60;;;;;;;-3.38;77.57;98422.77;105197;1271;76003;-27
2022/04/19 02:16:00;;;;;;;5.20;3.10;;;;;;;-3.69;77.44;98422.48;104880;1271;73260;-26
2022/04/19 02:18:49;;;;;;;4.00;2.50;;;;;;;-4.04;78.18;98419.34;104909;1271;61515;-27
2022/04/19 02:21:18;;;;;;;3.50;2.50;;;;;;;-4.29;78.37;98417.59;104907;1271;61935;-27
2022/04/19 02:24:07;;;;;;;4.70;2.70;;;;;;;-4.52;79.72;98416.77;104920;1271;74851;-27
2022/04/19 02:26:38;;;;;;;5.40;2.90;;;;;;;-4.70;80.32;98418.61;104966;1270;74382;-27
2022/04/19 02:29:07;;;;;;;4.00;2.30;;;;;;;-4.86;81.10;98419.08;104899;1271;74457;-26
2022/04/19 02:31:40;;;;;;;5.70;3.10;;;;;;;-4.28;80.90;98423.48;104948;1271;61877;-26
2022/04/19 02:34:29;;;;;;;5.50;4.20;;;;;;;-3.35;78.17;98427.43;104889;1271;61048;-27
2022/04/19 02:36:58;;;;;;;5.90;3.20;;;;;;;-3.15;77.42;98428.09;105094;1271;74513;-26
2022/04/19 02:39:28;;;;;;;5.60;3.40;;;;;;;-3.32;76.61;98428.53;104953;1271;75103;-27
2022/04/19 02:41:57;;;;;;;5.50;3.20;;;;;;;-3.59;77.37;98433.17;105015;1271;74597;-26
2022/04/19 02:44:27;;;;;;;3.10;2.10;;;;;;;-3.86;77.64;98425.54;104920;1271;61058;-26
2022/04/19 02:47:04;;;;;;;5.30;2.80;;;;;;;-4.14;77.46;98428.33;104955;1271;61166;-26
2022/04/19 02:49:36;;;;;;;5.70;3.10;;;;;;;-4.39;78.21;98430.75;104684;1271;75528;-26
2022/04/19 02:52:25;;;;;;;4.50;2.10;;;;;;;-4.61;78.10;98436.33;104870;1271;76410;-26
2022/04/19 02:54:54;;;;;;;3.60;2.40;;;;;;;-4.79;78.25;98433.47;104881;1271;73476;-27
2022/04/19 02:57:22;;;;;;;8.40;2.30;;;;;;;-4.96;78.46;98432.92;104994;1271;62559;-26
2022/04/19 02:59:53;;;;;;;4.20;2.90;;;;;;;-4.53;79.26;98434.55;104982;1271;61972;-26
2022/04/19 03:02:22;;;;;;;5.00;3.30;;;;;;;-3.58;77.89;98442.98;104933;1271;75466;-26
2022/04/19 03:04:51;;;;;;;3.90;1.80;;;;;;;-3.25;76.34;98445.09;104849;1271;73872;-26
2022/04/19 03:07:21;;;;;;;4.90;3.10;;;;;;;-3.35;75.61;98445.77;104840;1271;74183;-27
2022/04/19 03:09:50;;;;;;;3.50;2.70;;;;;;;-3.56;75.64;98441.04;104942;1271;61283;-26
2022/04/19 03:12:20;;;;;;;3.30;2.20;;;;;;;-3.81;76.29;98436.08;104942;1271;61364;-27
2022/04/19 03:15:00;;;;;;;3.60;2.00;;;;;;;-4.05;78.31;98434.31;104970;1271;75604;-26
2022/04/19 03:17:29;;;;;;;6.20;2.30;;;;;;;-4.21;79.06;98436.16;104833;1272;76359;-26
2022/04/19 03:19:58;;;;;;;5.00;2.60;;;;;;;-4.42;78.22;98432.70;104927;1271;73312;-27
2022/04/19 03:27:41;;;;;;;3.90;2.50;;;;;;;-4.66;78.23;98429.54;104887;1271;62104;-26
2022/04/19 03:28:04;;;;;;;3.70;2.20;;;;;;;-4.87;80.71;98430.30;104953;1271;74068;-27
2022/04/19 03:30:33;;;;;;;5.20;3.00;;;;;;;-4.17;80.81;98429.75;104770;1272;75211;-27
2022/04/19 03:33:03;;;;;;;5.30;2.60;;;;;;;-3.30;78.98;98430.14;104968;1271;73370;-28
2022/04/19 03:35:36;;;;;;;5.80;3.10;;;;;;;-3.07;78.59;98427.80;104793;1271;61136;-26
2022/04/19 03:38:05;;;;;;;5.10;3.60;;;;;;;-3.09;78.76;98428.58;104729;1271;61075;-25
2022/04/19 03:40:35;;;;;;;5.70;2.90;;;;;;;-3.18;79.39;98434.46;105071;1271;75408;-27
2022/04/19 03:43:06;;;;;;;5.00;3.10;;;;;;;-3.24;80.07;98434.19;104986;1272;74954;-27
2022/04/19 03:45:51;;;;;;;5.50;2.80;;;;;;;-3.28;80.60;98433.14;104973;1271;74316;-25
2022/04/19 03:48:21;;;;;;;4.10;2.80;;;;;;;-3.31;82.11;98429.66;105000;1271;61167;-25
2022/04/19 03:50:57;;;;;;;3.70;2.40;;;;;;;-3.26;82.35;98428.48;104969;1271;61855;-26
2022/04/19 03:53:26;;;;;;;5.70;2.70;;;;;;;-2.56;81.07;98426.63;105012;1271;75583;-26
2022/04/19 03:55:55;;;;;;;4.30;2.80;;;;;;;-1.71;78.58;98429.94;104911;1270;75040;-25
2022/04/19 03:58:27;;;;;;;5.60;3.60;;;;;;;-1.46;76.78;98432.17;104917;1271;74650;-26
2022/04/19 04:00:56;;;;;;;5.00;3.00;;;;;;;-1.53;76.51;98429.24;104935;1271;61143;-26
2022/04/19 04:03:26;;;;;;;6.70;2.80;;;;;;;-1.71;76.74;98429.09;104894;1271;61188;-26
2022/04/19 04:05:55;;;;;;;5.10;3.40;;;;;;;-1.94;77.63;98428.16;104777;1272;75090;-26
2022/04/19 04:08:45;;;;;;;3.00;2.20;;;;;;;-2.17;78.39;98428.38;105147;1271;76127;-26
2022/04/19 04:11:14;;;;;;;5.60;4.00;;;;;;;-2.34;79.30;98424.44;104886;1271;74520;-26
2022/04/19 04:14:05;;;;;;;3.50;2.50;;;;;;;-2.28;80.06;98424.21;104860;1271;63165;-26
2022/04/19 04:16:37;;;;;;;6.30;2.70;;;;;;;-1.54;78.01;98420.77;104961;1271;62142;-25
2022/04/19 04:19:06;;;;;;;3.10;2.10;;;;;;;-1.28;76.22;98416.27;104870;1271;75291;-25
2022/04/19 04:21:35;;;;;;;6.40;3.10;;;;;;;-1.37;76.17;98418.36;104955;1271;75901;-27
2022/04/19 04:24:05;;;;;;;4.50;2.50;;;;;;;-1.57;77.25;98429.73;104939;1271;74418;-26
2022/04/19 04:26:37;;;;;;;5.90;3.20;;;;;;;-1.81;78.15;98425.96;104910;1270;61349;-28
2022/04/19 04:29:10;;;;;;;4.60;3.10;;;;;;;-2.01;78.93;98432.54;104998;1271;61130;-26
2022/04/19 04:31:39;;;;;;;7.80;3.90;;;;;;;-2.17;79.61;98439.29;104925;1271;74487;-26
2022/04/19 04:34:13;;;;;;;5.30;2.80;;;;;;;-2.06;80.57;98442.25;104983;1271;74979;-26
2022/04/19 04:37:03;;;;;;;7.00;2.70;;;;;;;-1.27;78.23;98445.84;104868;1271;73859;-27
2022/04/19 04:39:35;;;;;;;5.30;3.70;;;;;;;-0.96;76.74;98444.54;104829;1271;61141;-28
2022/04/19 04:42:50;;;;;;;4.20;3.00;;;;;;;-0.95;76.57;98447.55;104579;1277;61860;-26
2022/04/19 04:45:20;;;;;;;6.30;3.20;;;;;;;-1.01;76.84;98443.90;104409;1277;75493;-28
2022/04/19 04:50:38;;;;;;;3.70;2.30;;;;;;;-1.22;78.65;98440.17;104838;1271;74416;-25
2022/04/19 04:53:08;;;;;;;3.40;2.90;;;;;;;-1.02;78.50;98438.66;104853;1271;63175;-26
2022/04/19 04:55:41;;;;;;;7.70;5.20;;;;;;;-0.32;76.54;98436.36;104939;1271;61006;-26
2022/04/19 04:58:16;;;;;;;3.60;3.00;;;;;;;-0.12;75.48;98440.24;105129;1271;76490;-26
2022/04/19 05:00:45;;;;;;;6.80;4.60;;;;;;;-0.13;74.81;98440.09;105105;1271;76010;-26
2022/04/19 05:03:14;;;;;;;8.20;4.90;;;;;;;-0.37;76.06;98440.88;104848;1271;74378;-26
2022/04/19 05:06:03;;;;;;;9.00;5.50;;;;;;;-0.57;77.03;98438.54;104913;1271;61518;-26
2022/04/19 05:08:32;;;;;;;5.10;3.20;;;;;;;-0.65;77.64;98443.17;104924;1271;61157;-26
2022/04/19 05:11:20;;;;;;;7.70;4.30;;;;;;;-0.56;78.74;98450.10;104934;1271;74791;-26
2022/04/19 05:13:50;;;;;;;6.00;3.50;;;;;;;-0.57;79.56;98448.24;104871;1271;74980;-26
2022/04/19 05:16:19;;;;;;;6.10;4.20;;;;;;;-0.05;77.09;98445.68;104959;1271;73879;-27
2022/04/19 05:18:49;;;;;;;8.30;3.90;;;;;;;0.31;76.00;98448.43;104912;1271;61105;-26
2022/04/19 05:21:17;;;;;;;4.60;3.10;;;;;;;0.49;75.76;98447.38;104911;1271;61102;-28
2022/04/19 05:23:46;;;;;;;4.80;3.40;;;;;;;0.41;75.68;98443.64;104895;1271;75593;-27
2022/04/19 05:26:39;;;;;;;5.50;3.30;;;;;;;0.38;76.69;98450.63;104872;1271;76218;-27
2022/04/19 05:29:10;;;;;;;4.90;3.20;;;;;;;0.36;76.79;98447.98;104943;1271;74296;-28
2022/04/19 05:31:42;;;;;;;;;;;;;;;0.22;77.34;98451.94;104876;1271;61136;-27
2022/04/19 05:34:12;;;;;;;5.60;4.20;;;;;;;0.25;77.05;98445.83;104903;1271;60953;-28
2022/04/19 05:36:42;;;;;;;3.70;2.70;;;;;;;0.28;77.92;98451.81;104911;1271;75290;-28
2022/04/19 05:39:22;;;;;;;2.10;1.50;;;;;;;1.06;76.24;98451.52;104967;1271;75878;-28
2022/04/19 05:41:51;;;;;;;5.10;3.70;;;;;;;1.50;74.10;98453.65;105001;1271;74208;-28
2022/04/19 05:44:21;;;;;;;4.70;2.90;;;;;;;1.57;73.84;98451.59;105084;1271;61209;-27
2022/04/19 05:47:05;;;;;;;4.70;3.30;;;;;;;1.33;74.13;98454.58;105164;1271;61035;-26
2022/04/19 05:49:34;;;;;;;5.20;3.50;;;;;;;1.12;76.01;98457.21;105021;1271;74537;-26
2022/04/19 05:52:03;;;;;;;4.40;3.00;;;;;;;1.03;77.47;98457.45;104921;1271;76125;-27
2022/04/19 05:54:33;;;;;;;5.40;3.40;;;;;;;1.17;76.64;98456.79;104750;1271;74157;-27
2022/04/19 05:57:02;;;;;;;4.00;3.00;;;;;;;1.18;76.40;98454.98;104935;1271;61005;-28
2022/04/19 05:59:32;;;;;;;4.50;3.40;;;;;;;1.67;75.44;98449.34;104832;1271;61481;-27
2022/04/19 06:04:54;;;;;;;4.40;3.00;;;;;;;2.59;72.36;98449.51;104838;1271;76188;-26
2022/04/19 06:07:44;;;;;;;3.90;2.80;;;;;;;2.61;72.21;98451.95;104886;1271;74237;-27
2022/04/19 06:10:18;;;;;;;5.30;2.20;;;;;;;2.69;71.66;98451.50;104911;1271;61118;-26
2022/04/19 06:13:10;;;;;;;4.90;3.80;;;;;;;2.58;71.98;98445.95;104917;1271;63204;-27
2022/04/19 06:15:38;;;;;;;6.90;4.10;;;;;;;2.45;72.18;98440.20;104968;1271;75684;-28
2022/04/19 06:18:09;;;;;;;8.10;4.80;;;;;;;2.24;73.20;98446.17;104989;1271;75986;-27
2022/04/19 06:20:53;;;;;;;7.60;3.90;;;;;;;2.28;73.11;98441.33;104979;1272;74019;-27
2022/04/19 06:23:25;;;;;;;5.30;3.80;;;;;;;2.19;73.66;98438.59;105085;1270;61104;-27
2022/04/19 06:25:54;;;;;;;5.50;3.30;;;;;;;2.44;72.87;98434.45;105144;1270;61927;-26
2022/04/19 06:28:25;;;;;;;5.90;4.40;;;;;;;2.08;73.24;98434.58;105103;1271;75582;-26
2022/04/19 06:31:17;;;;;;;4.90;3.70;;;;;;;2.15;74.82;98439.48;105166;1271;76022;-26
2022/04/19 06:34:17;;;;;;;4.00;2.90;;;;;;;3.17;72.67;98437.85;105111;1271;74688;-27
2022/04/19 06:36:57;;;;;;;6.50;4.20;;;;;;;3.57;69.51;98436.27;105087;1274;61136;-27
2022/04/19 06:39:26;;;;;;;5.20;4.20;;;;;;;3.61;69.53;98433.48;104919;1271;61117;-27
2022/04/19 06:41:57;;;;;;;4.40;3.40;;;;;;;3.45;68.95;98429.30;104826;1271;75591;-28
2022/04/19 06:44:29;;;;;;;5.40;3.50;;;;;;;3.46;68.96;98428.23;104778;1271;74117;-27
2022/04/19 06:47:08;;;;;;;6.60;4.40;;;;;;;3.58;68.06;98422.68;104994;1271;76214;-26
2022/04/19 06:49:38;;;;;;;10.20;4.60;;;;;;;3.57;68.48;98430.96;104912;1271;344303;-25
2022/04/19 06:52:08;;;;;;;5.70;4.00;;;;;;;3.24;68.89;98431.42;105129;1271;61128;-25
2022/04/19 06:54:37;;;;;;;5.70;3.90;;;;;;;3.25;69.36;98430.02;104957;1271;75632;-27
2022/04/19 06:57:26;;;;;;;5.40;3.60;;;;;;;3.46;68.94;98432.04;104812;1271;77128;-28
2022/04/19 06:59:57;;;;;;;6.10;4.10;;;;;;;3.52;67.72;98437.63;104898;1270;74929;-27
2022/04/19 07:02:26;;;;;;;4.20;3.20;;;;;;;3.43;67.36;98432.40;104934;1271;61080;-26
2022/04/19 07:04:59;;;;;;;7.20;3.10;;;;;;;3.51;68.01;98439.44;105048;1271;61127;-27
2022/04/19 07:07:32;;;;;;;5.40;3.70;;;;;;;3.39;68.19;98437.41;104994;1271;75583;-26
2022/04/19 07:10:21;;;;;;;3.30;2.70;;;;;;;3.44;67.55;98434.83;104890;1271;73099;-26
2022/04/19 07:12:55;;;;;;;5.90;3.20;;;;;;;3.40;66.10;98440.43;104877;1271;74552;-27
2022/04/19 07:15:45;;;;;;;4.10;3.20;;;;;;;3.36;66.12;98444.30;104918;1271;61074;-27
2022/04/19 07:18:15;;;;;;;24.40;4.70;;;;;;;3.52;64.62;98453.60;105014;1271;61006;-27
2022/04/19 07:26:37;;;;;;;3.20;2.60;;;;;;;4.08;63.43;98456.77;104826;1271;73394;-26
2022/04/19 07:29:10;;;;;;;6.20;3.70;;;;;;;3.86;64.56;98461.80;105057;1271;61130;-26
2022/04/19 07:31:44;;;;;;;5.80;3.30;;;;;;;4.07;63.91;98451.69;105098;1272;62059;-26
2022/04/19 07:34:33;;;;;;;7.80;3.40;;;;;;;4.31;63.35;98450.03;104822;1271;75565;-26
2022/04/19 07:37:03;;;;;;;3.70;2.90;;;;;;;4.29;62.49;98451.36;104992;1271;73959;-28
2022/04/19 07:39:33;;;;;;;4.70;3.30;;;;;;;4.22;61.99;98454.89;104765;1270;72392;-26
2022/04/19 07:42:03;;;;;;;3.00;2.00;;;;;;;4.13;62.15;98449.75;104916;1271;61142;-26
2022/04/19 07:44:33;;;;;;;4.00;3.40;;;;;;;4.55;60.40;98451.36;104793;1271;62044;-26
2022/04/19 07:47:03;;;;;;;6.80;3.50;;;;;;;4.45;61.92;98451.84;104675;1271;75585;-25
2022/04/19 07:49:39;;;;;;;4.60;2.70;;;;;;;5.01;60.19;98447.98;104982;1272;76004;-26
2022/04/19 07:52:09;;;;;;;5.00;3.30;;;;;;;5.25;59.63;98455.46;104745;1274;73141;-26
2022/04/19 07:54:39;;;;;;;7.90;4.00;;;;;;;5.14;59.51;98455.86;104923;1269;61283;-27
2022/04/19 07:57:09;;;;;;;5.70;4.30;;;;;;;5.02;60.24;98449.80;104818;1270;61095;-26
2022/04/19 07:59:38;;;;;;;7.10;4.50;;;;;;;4.87;60.28;98453.20;104888;1271;74269;-26
2022/04/19 08:02:07;;;;;;;4.50;3.00;;;;;;;4.88;60.42;98452.80;104945;1271;75943;-26
2022/04/19 08:04:36;;;;;;;15.30;3.80;;;;;;;4.75;60.00;98460.39;104867;1269;74442;-26
2022/04/19 08:07:06;;;;;;;5.10;3.40;;;;;;;5.19;60.43;98455.50;104931;1271;61030;-26
2022/04/19 08:09:35;;;;;;;5.20;3.60;;;;;;;5.79;58.16;98449.36;104962;1271;62052;-26
2022/04/19 08:14:32;;;;;;;5.30;2.80;;;;;;;5.54;56.44;98450.33;101522;1309;600298;-26
2022/04/19 08:17:09;;;;;;;7.80;3.30;;;;;;;5.53;57.19;98454.27;104393;1283;61844;-26
2022/04/19 08:19:38;;;;;;;3.10;2.10;;;;;;;5.63;57.33;98457.48;104313;1283;61043;-25
2022/04/19 08:22:08;;;;;;;4.30;3.10;;;;;;;5.58;57.06;98462.52;104384;1283;72478;-26
2022/04/19 08:24:43;;;;;;;3.30;2.30;;;;;;;5.74;56.83;98453.10;104409;1283;75981;-27
2022/04/19 08:27:15;;;;;;;6.90;3.80;;;;;;;5.70;56.47;98444.07;104132;1282;456434;-28
2022/04/19 08:29:44;;;;;;;5.20;3.40;;;;;;;5.29;57.95;98450.37;104341;1281;61186;-27
2022/04/19 08:32:14;;;;;;;4.60;3.20;;;;;;;4.98;57.46;98454.19;104445;1281;62556;-27
2022/04/19 08:34:45;;;;;;;7.20;4.70;;;;;;;4.70;58.66;98452.94;104359;1281;73975;-26
2022/04/19 08:37:14;;;;;;;5.40;3.90;;;;;;;5.00;57.77;98442.70;104221;1281;74754;-25
2022/04/19 08:40:05;;;;;;;4.40;2.90;;;;;;;4.96;57.84;98431.13;104184;1281;75492;-26
2022/04/19 08:42:35;;;;;;;4.90;3.30;;;;;;;4.79;57.92;98428.81;104286;1281;61113;-27
2022/04/19 08:45:05;;;;;;;4.40;2.70;;;;;;;5.07;57.22;98424.16;104309;1281;61055;-26
2022/04/19 08:47:38;;;;;;;6.90;4.70;;;;;;;5.29;56.75;98422.98;104303;1281;74633;-27
2022/04/19 08:50:12;;;;;;;14.30;3.20;;;;;;;5.10;57.00;98419.52;104386;1281;75979;-24
2022/04/19 08:52:41;;;;;;;3.90;2.50;;;;;;;5.37;55.35;98412.97;104155;1281;73369;-26
2022/04/19 08:57:59;;;;;;;3.90;2.80;;;;;;;5.98;54.73;98406.64;104108;1281;62120;-27
2022/04/19 09:00:28;;;;;;;4.00;2.90;;;;;;;5.72;54.88;98399.35;104599;1277;73492;-27
2022/04/19 09:02:58;;;;;;;3.20;2.40;;;;;;;5.68;54.90;98398.96;104771;1273;75286;-27
2022/04/19 09:05:51;;;;;;;5.90;3.50;;;;;;;5.48;55.55;98406.04;104659;1274;74269;-26
2022/04/19 09:08:20;;;;;;;3.60;2.80;;;;;;;5.79;55.55;98399.70;104701;1275;61132;-26
2022/04/19 09:10:52;;;;;;;4.30;2.80;;;;;;;6.39;53.62;98393.98;104769;1275;61816;-27
2022/04/19 09:13:23;;;;;;;6.80;3.50;;;;;;;5.69;52.94;98387.51;104610;1275;74786;-27
2022/04/19 09:16:12;;;;;;;6.20;2.90;;;;;;;5.53;53.90;98398.60;104566;1275;75135;-26
2022/04/19 09:18:42;;;;;;;7.40;3.50;;;;;;;6.13;52.29;98390.92;104724;1274;74243;-25
2022/04/19 09:21:39;;;;;;;2.10;1.50;;;;;;;6.79;48.22;98381.14;104601;1274;62834;-27
2022/04/19 09:24:21;;;;;;;4.20;2.40;;;;;;;7.12;49.54;98376.09;104543;1276;61104;-25
2022/04/19 09:27:09;;;;;;;5.50;3.00;;;;;;;6.73;49.91;98376.48;104712;1274;74610;-26
2022/04/19 09:29:38;;;;;;;4.90;3.20;;;;;;;6.99;48.59;98379.83;104700;1274;75917;-26
2022/04/19 09:32:16;;;;;;;6.90;3.90;;;;;;;6.80;49.85;98378.04;104599;1276;74669;-26
2022/04/19 09:34:46;;;;;;;5.70;2.80;;;;;;;7.21;50.36;98385.05;104593;1274;61128;-26
2022/04/19 09:37:15;;;;;;;4.20;2.90;;;;;;;7.19;48.23;98374.56;104666;1275;61378;-26
2022/04/19 09:39:44;;;;;;;4.50;2.90;;;;;;;6.99;48.28;98375.19;104638;1274;74308;-26
2022/04/19 09:42:16;;;;;;;2.50;2.00;;;;;;;7.20;47.92;98377.73;104580;1274;76062;-26
2022/04/19 09:44:50;;;;;;;3.10;2.30;;;;;;;7.95;45.20;98366.98;104643;1274;74282;-26
2022/04/19 09:47:19;;;;;;;;;;;;;;;8.34;46.77;98368.92;104370;1276;62042;-26
2022/04/19 09:49:54;;;;;;;3.90;2.60;;;;;;;7.81;47.22;98356.66;104616;1274;61134;-26
2022/04/19 09:52:22;;;;;;;3.80;2.70;;;;;;;7.69;46.93;98365.58;104429;1275;72449;-26
2022/04/19 09:55:00;;;;;;;3.40;2.40;;;;;;;8.11;46.76;98363.45;104650;1274;75068;-26
2022/04/19 09:57:30;;;;;;;2.30;1.80;;;;;;;8.87;44.15;98355.42;104656;1275;74461;-26
2022/04/19 09:59:59;;;;;;;5.30;2.20;;;;;;;8.54;43.62;98350.19;104478;1274;62036;-26
2022/04/19 10:08:11;;;;;;;2.50;2.10;;;;;;;8.01;46.39;98362.83;104630;1274;76141;-25
2022/04/19 10:10:44;;;;;;;2.50;2.10;;;;;;;7.71;45.41;98351.88;104583;1276;74403;-26
2022/04/19 10:13:13;;;;;;;1.80;1.60;;;;;;;7.49;45.45;98365.23;104522;1275;61140;-26
2022/04/19 10:16:02;;;;;;;5.80;2.20;;;;;;;7.42;45.47;98363.54;104680;1274;61596;-25
2022/04/19 10:18:32;;;;;;;2.10;1.90;;;;;;;7.52;46.06;98361.89;104654;1274;74515;-25
2022/04/19 10:21:24;;;;;;;3.10;1.90;;;;;;;8.14;44.13;98355.79;104570;1274;76869;-26
2022/04/19 10:24:11;;;;;;;2.70;1.70;;;;;;;8.49;44.03;98362.39;104373;1275;74165;-25
2022/04/19 10:26:48;;;;;;;7.40;1.80;;;;;;;8.88;42.68;98360.36;104618;1274;61255;-25
2022/04/19 10:29:23;;;;;;;3.80;2.30;;;;;;;9.22;42.11;98366.25;104643;1275;61601;-26
2022/04/19 10:32:04;;;;;;;2.90;1.90;;;;;;;8.45;42.22;98363.38;104577;1275;74708;-25
2022/04/19 10:34:43;;;;;;;4.20;3.10;;;;;;;7.26;44.85;98364.15;104577;1274;75801;-26
2022/04/19 10:37:13;;;;;;;2.80;2.20;;;;;;;7.15;45.84;98367.05;104658;1274;73872;-27
2022/04/19 10:39:46;;;;;;;3.40;1.90;;;;;;;7.98;44.38;98369.51;104594;1274;61079;-26
2022/04/19 10:42:32;;;;;;;21.00;3.50;;;;;;;8.79;43.37;98375.45;104340;1275;61783;-26
2022/04/19 10:45:25;;;;;;;3.70;2.20;;;;;;;9.20;41.42;98371.44;104720;1274;74370;-26
2022/04/19 10:48:01;;;;;;;2.30;1.70;;;;;;;8.27;42.29;98372.95;104499;1274;76051;-26
2022/04/19 10:50:40;;;;;;;4.90;2.80;;;;;;;8.31;42.28;98373.55;104365;1274;73312;-27
2022/04/19 10:53:10;;;;;;;6.60;2.10;;;;;;;8.52;40.88;98364.08;104602;1275;62029;-26
2022/04/19 10:56:01;;;;;;;5.60;1.90;;;;;;;8.58;41.49;98362.17;104569;1275;62738;-26
2022/04/19 10:58:43;;;;;;;3.40;2.50;;;;;;;9.20;39.16;98359.91;104440;1275;74769;-26
2022/04/19 11:01:31;;;;;;;2.80;1.80;;;;;;;9.08;39.54;98365.45;104601;1275;76017;-26
2022/04/19 11:04:00;;;;;;;46.80;4.30;;;;;;;9.31;40.11;98362.38;104649;1275;73420;-27
2022/04/19 11:06:33;;;;;;;2.90;2.60;;;;;;;8.73;41.60;98368.86;105139;1271;61883;-27
2022/04/19 11:09:23;;;;;;;2.70;2.10;;;;;;;8.20;41.47;98360.07;105017;1272;62087;-27
2022/04/19 11:12:08;;;;;;;3.40;2.50;;;;;;;7.91;41.04;98370.53;104827;1272;74035;-26
2022/04/19 11:14:43;;;;;;;3.90;2.60;;;;;;;7.95;41.84;98370.22;104911;1272;76020;-26
2022/04/19 11:17:27;;;;;;;1.90;1.50;;;;;;;8.76;41.59;98364.29;105012;1271;74396;-26
2022/04/19 11:20:14;;;;;;;2.80;1.90;;;;;;;8.90;40.62;98355.17;105026;1271;61140;-26
2022/04/19 11:22:47;;;;;;;2.40;1.80;;;;;;;8.60;39.95;98355.92;105143;1272;61055;-26
2022/04/19 11:25:34;;;;;;;4.30;1.90;;;;;;;8.66;40.07;98358.42;105135;1271;73948;-27
2022/04/19 11:28:08;;;;;;;2.30;1.80;;;;;;;8.55;40.84;98358.45;104897;1272;75811;-27
2022/04/19 11:30:50;;;;;;;3.10;2.50;;;;;;;8.80;41.68;98349.06;104911;1272;73638;-26
2022/04/19 11:33:36;;;;;;;4.70;2.40;;;;;;;8.71;40.65;98352.09;104799;1271;62115;-25
2022/04/19 11:36:18;;;;;;;4.20;1.60;;;;;;;8.17;41.08;98337.48;104803;1272;62625;-26
2022/04/19 11:38:48;;;;;;;3.20;1.70;;;;;;;7.83;40.56;98336.95;104827;1271;73827;-26
2022/04/19 11:47:00;;;;;;;3.60;2.50;;;;;;;8.28;42.61;98338.69;104613;1273;61395;-26
2022/04/19 11:49:30;;;;;;;3.50;2.50;;;;;;;8.52;42.88;98332.41;104837;1271;61776;-27
2022/04/19 11:52:00;;;;;;;2.80;2.00;;;;;;;8.30;42.55;98336.61;104759;1272;75045;-27
2022/04/19 11:54:30;;;;;;;3.50;1.50;;;;;;;8.19;41.54;98323.89;104658;1273;74703;-27
2022/04/19 11:57:01;;;;;;;2.30;1.70;;;;;;;7.99;39.82;98322.39;104599;1271;74445;-27
2022/04/19 11:59:32;;;;;;;3.20;2.20;;;;;;;8.37;40.46;98327.41;104648;1273;61275;-27
2022/04/19 12:02:03;;;;;;;4.10;1.60;;;;;;;8.40;39.84;98321.64;104748;1273;61064;-28
2022/04/19 12:04:54;;;;;;;4.00;1.50;;;;;;;8.22;42.03;98324.10;104613;1272;75759;-27
2022/04/19 12:07:25;;;;;;;1.90;1.70;;;;;;;8.76;41.07;98313.45;104785;1273;76370;-27
2022/04/19 12:10:14;;;;;;;2.90;2.20;;;;;;;8.66;40.97;98310.13;104715;1271;73444;-27
2022/04/19 12:12:44;;;;;;;2.80;2.20;;;;;;;8.08;40.01;98309.05;104791;1271;61285;-26
2022/04/19 12:15:12;;;;;;;2.70;1.70;;;;;;;8.03;41.34;98310.50;105036;1271;61099;-26
2022/04/19 12:17:44;;;;;;;2.10;1.90;;;;;;;7.81;39.91;98302.95;105131;1273;75836;-26
2022/04/19 12:20:12;;;;;;;2.00;1.60;;;;;;;7.95;40.70;98308.68;104878;1274;76501;-27
2022/04/19 12:22:51;;;;;;;3.00;2.30;;;;;;;8.09;41.47;98303.91;105119;1271;73156;-26
2022/04/19 12:25:25;;;;;;;3.70;2.10;;;;;;;7.81;43.69;98305.36;104806;1273;61120;-25
2022/04/19 12:27:55;;;;;;;3.80;2.30;;;;;;;7.90;43.76;98306.16;104644;1273;61040;-25
2022/04/19 12:30:28;;;;;;;2.60;2.10;;;;;;;7.90;43.89;98315.02;104802;1273;73728;-25
2022/04/19 12:32:59;;;;;;;4.10;2.10;;;;;;;8.29;42.35;98310.11;104869;1273;75942;-25
2022/04/19 12:35:35;;;;;;;2.30;1.80;;;;;;;8.08;40.86;98296.55;104760;1272;73491;-25
2022/04/19 12:38:09;;;;;;;2.70;1.90;;;;;;;7.87;40.30;98304.19;104660;1273;61140;-26